sensor_id;sensor_type;location;lat;lon;timestamp;pressure;altitude;pressure_sealevel;temperature;humidity
76337;BME280;65157;50.082;18.178;2023-04-28T00:00:18;99726.17;;;4.15;66.40
76337;BME280;65157;50.082;18.178;2023-04-28T00:03:06;99722.55;;;4.09;66.22
76337;BME280;65157;50.082;18.178;2023-04-28T00:05:33;99719.96;;;4.05;66.24
76337;BME280;65157;50.082;18.178;2023-04-28T00:07:59;99718.06;;;4.01;66.35
76337;BME280;65157;50.082;18.178;2023-04-28T00:10:26;99717.95;;;3.95;66.65
76337;BME280;65157;50.082;18.178;2023-04-28T00:12:55;99717.11;;;3.90;66.64
76337;BME280;65157;50.082;18.178;2023-04-28T00:15:22;99717.15;;;3.86;66.65
76337;BME280;65157;50.082;18.178;2023-04-28T00:17:55;99715.96;;;3.81;66.97
76337;BME280;65157;50.082;18.178;2023-04-28T00:20:22;99718.76;;;3.80;67.01
76337;BME280;65157;50.082;18.178;2023-04-28T00:22:48;99716.68;;;3.79;66.99
76337;BME280;65157;50.082;18.178;2023-04-28T00:25:15;99714.44;;;3.75;66.99
76337;BME280;65157;50.082;18.178;2023-04-28T00:27:42;99714.63;;;3.73;66.98
76337;BME280;65157;50.082;18.178;2023-04-28T00:30:09;99714.11;;;3.72;66.96
76337;BME280;65157;50.082;18.178;2023-04-28T00:32:36;99713.77;;;3.70;67.11
76337;BME280;65157;50.082;18.178;2023-04-28T00:35:05;99713.27;;;3.67;67.00
76337;BME280;65157;50.082;18.178;2023-04-28T00:37:35;99712.59;;;3.65;67.16
76337;BME280;65157;50.082;18.178;2023-04-28T00:40:02;99711.22;;;3.62;67.28
76337;BME280;65157;50.082;18.178;2023-04-28T00:42:29;99708.79;;;3.60;67.30
76337;BME280;65157;50.082;18.178;2023-04-28T00:44:56;99716.31;;;3.57;67.31
76337;BME280;65157;50.082;18.178;2023-04-28T00:47:23;99702.23;;;3.49;67.48
76337;BME280;65157;50.082;18.178;2023-04-28T00:49:49;99717.91;;;3.53;67.51
76337;BME280;65157;50.082;18.178;2023-04-28T00:52:16;99718.10;;;3.51;67.52
76337;BME280;65157;50.082;18.178;2023-04-28T00:54:43;99718.48;;;3.46;67.66
76337;BME280;65157;50.082;18.178;2023-04-28T00:57:12;99717.64;;;3.40;67.70
76337;BME280;65157;50.082;18.178;2023-04-28T00:59:39;99715.41;;;3.34;67.76
76337;BME280;65157;50.082;18.178;2023-04-28T01:02:07;99716.11;;;3.31;68.24
76337;BME280;65157;50.082;18.178;2023-04-28T01:04:34;99717.71;;;3.27;68.11
76337;BME280;65157;50.082;18.178;2023-04-28T01:07:01;99705.20;;;3.15;68.04
76337;BME280;65157;50.082;18.178;2023-04-28T01:09:28;99714.08;;;3.19;68.18
76337;BME280;65157;50.082;18.178;2023-04-28T01:11:55;99713.59;;;3.16;68.25
76337;BME280;65157;50.082;18.178;2023-04-28T01:14:27;99715.69;;;3.14;68.18
76337;BME280;65157;50.082;18.178;2023-04-28T01:16:54;99711.69;;;3.11;68.25
76337;BME280;65157;50.082;18.178;2023-04-28T01:19:24;99712.04;;;3.10;68.45
76337;BME280;65157;50.082;18.178;2023-04-28T01:21:52;99716.59;;;3.07;68.33
76337;BME280;65157;50.082;18.178;2023-04-28T01:24:21;99713.98;;;3.06;68.36
76337;BME280;65157;50.082;18.178;2023-04-28T01:26:48;99705.83;;;2.94;68.18
76337;BME280;65157;50.082;18.178;2023-04-28T01:29:15;99712.81;;;2.93;68.54
76337;BME280;65157;50.082;18.178;2023-04-28T01:31:43;99718.23;;;2.90;68.73
76337;BME280;65157;50.082;18.178;2023-04-28T01:34:10;99723.13;;;2.89;68.75
76337;BME280;65157;50.082;18.178;2023-04-28T01:36:37;99724.34;;;2.88;68.81
76337;BME280;65157;50.082;18.178;2023-04-28T01:39:05;99719.30;;;2.83;68.69
76337;BME280;65157;50.082;18.178;2023-04-28T01:41:39;99717.75;;;2.80;69.11
76337;BME280;65157;50.082;18.178;2023-04-28T01:44:06;99716.89;;;2.76;68.79
76337;BME280;65157;50.082;18.178;2023-04-28T01:46:33;99688.73;;;2.59;69.05
76337;BME280;65157;50.082;18.178;2023-04-28T01:49:00;99671.84;;;2.48;68.89
76337;BME280;65157;50.082;18.178;2023-04-28T01:51:26;99706.11;;;2.69;69.17
76337;BME280;65157;50.082;18.178;2023-04-28T01:53:55;99706.63;;;2.67;69.61
76337;BME280;65157;50.082;18.178;2023-04-28T01:56:24;99706.98;;;2.65;69.50
76337;BME280;65157;50.082;18.178;2023-04-28T01:58:51;99707.00;;;2.64;69.72
76337;BME280;65157;50.082;18.178;2023-04-28T02:01:19;99706.65;;;2.61;69.97
76337;BME280;65157;50.082;18.178;2023-04-28T02:03:45;99705.98;;;2.58;69.88
76337;BME280;65157;50.082;18.178;2023-04-28T02:06:15;99696.59;;;2.53;69.71
76337;BME280;65157;50.082;18.178;2023-04-28T02:08:42;99703.36;;;2.59;70.16
76337;BME280;65157;50.082;18.178;2023-04-28T02:11:08;99701.62;;;2.58;69.97
76337;BME280;65157;50.082;18.178;2023-04-28T02:13:35;99698.67;;;2.52;69.97
76337;BME280;65157;50.082;18.178;2023-04-28T02:16:02;99701.45;;;2.54;69.95
76337;BME280;65157;50.082;18.178;2023-04-28T02:18:29;99703.19;;;2.53;69.97
76337;BME280;65157;50.082;18.178;2023-04-28T02:20:56;99705.64;;;2.52;70.23
76337;BME280;65157;50.082;18.178;2023-04-28T02:23:23;99699.71;;;2.50;70.18
76337;BME280;65157;50.082;18.178;2023-04-28T02:25:49;99701.64;;;2.50;70.38
76337;BME280;65157;50.082;18.178;2023-04-28T02:28:16;99700.25;;;2.46;70.38
76337;BME280;65157;50.082;18.178;2023-04-28T02:30:43;99696.96;;;2.43;70.50
76337;BME280;65157;50.082;18.178;2023-04-28T02:33:09;99693.28;;;2.41;70.53
76337;BME280;65157;50.082;18.178;2023-04-28T02:35:38;99691.91;;;2.41;70.50
76337;BME280;65157;50.082;18.178;2023-04-28T02:38:05;99688.08;;;2.39;70.63
76337;BME280;65157;50.082;18.178;2023-04-28T02:40:32;99688.77;;;2.39;70.73
76337;BME280;65157;50.082;18.178;2023-04-28T02:42:58;99685.65;;;2.35;70.90
76337;BME280;65157;50.082;18.178;2023-04-28T02:45:25;99696.96;;;2.41;70.89
76337;BME280;65157;50.082;18.178;2023-04-28T02:47:52;99697.99;;;2.43;71.04
76337;BME280;65157;50.082;18.178;2023-04-28T02:50:19;99696.77;;;2.44;70.82
76337;BME280;65157;50.082;18.178;2023-04-28T02:52:45;99700.77;;;2.45;71.02
76337;BME280;65157;50.082;18.178;2023-04-28T02:55:12;99680.78;;;2.33;71.27
76337;BME280;65157;50.082;18.178;2023-04-28T02:57:39;99693.64;;;2.41;71.64
76337;BME280;65157;50.082;18.178;2023-04-28T03:00:15;99696.79;;;2.37;71.72
76337;BME280;65157;50.082;18.178;2023-04-28T03:02:41;99696.79;;;2.34;71.95
76337;BME280;65157;50.082;18.178;2023-04-28T03:05:08;99691.23;;;2.32;71.84
76337;BME280;65157;50.082;18.178;2023-04-28T03:07:35;99689.83;;;2.30;71.74
76337;BME280;65157;50.082;18.178;2023-04-28T03:10:02;99690.34;;;2.30;72.15
76337;BME280;65157;50.082;18.178;2023-04-28T03:12:28;99686.02;;;2.29;72.04
76337;BME280;65157;50.082;18.178;2023-04-28T03:14:55;99685.14;;;2.28;72.22
76337;BME280;65157;50.082;18.178;2023-04-28T03:17:22;99681.48;;;2.28;72.48
76337;BME280;65157;50.082;18.178;2023-04-28T03:19:49;99674.36;;;2.25;72.42
76337;BME280;65157;50.082;18.178;2023-04-28T03:22:18;99680.62;;;2.28;72.59
76337;BME280;65157;50.082;18.178;2023-04-28T03:24:47;99671.40;;;2.21;72.59
76337;BME280;65157;50.082;18.178;2023-04-28T03:27:14;99679.05;;;2.28;72.81
76337;BME280;65157;50.082;18.178;2023-04-28T03:29:41;99682.00;;;2.28;72.85
76337;BME280;65157;50.082;18.178;2023-04-28T03:32:07;99675.21;;;2.25;72.94
76337;BME280;65157;50.082;18.178;2023-04-28T03:34:35;99682.88;;;2.29;73.07
76337;BME280;65157;50.082;18.178;2023-04-28T03:37:02;99677.65;;;2.28;72.96
76337;BME280;65157;50.082;18.178;2023-04-28T03:39:28;99676.96;;;2.28;73.01
76337;BME280;65157;50.082;18.178;2023-04-28T03:41:58;99679.20;;;2.30;73.13
76337;BME280;65157;50.082;18.178;2023-04-28T03:44:27;99674.68;;;2.31;73.33
76337;BME280;65157;50.082;18.178;2023-04-28T03:46:54;99673.80;;;2.32;73.43
76337;BME280;65157;50.082;18.178;2023-04-28T03:49:24;99674.15;;;2.34;73.48
76337;BME280;65157;50.082;18.178;2023-04-28T03:51:54;99677.45;;;2.38;73.54
76337;BME280;65157;50.082;18.178;2023-04-28T03:54:20;99674.48;;;2.41;73.34
76337;BME280;65157;50.082;18.178;2023-04-28T03:56:50;99680.40;;;2.45;73.77
76337;BME280;65157;50.082;18.178;2023-04-28T03:59:17;99654.14;;;2.33;73.81
76337;BME280;65157;50.082;18.178;2023-04-28T04:01:44;99674.47;;;2.46;74.04
76337;BME280;65157;50.082;18.178;2023-04-28T04:04:13;99687.52;;;2.55;74.18
76337;BME280;65157;50.082;18.178;2023-04-28T04:06:43;99686.28;;;2.58;74.37
76337;BME280;65157;50.082;18.178;2023-04-28T04:09:10;99679.14;;;2.58;74.76
76337;BME280;65157;50.082;18.178;2023-04-28T04:11:37;99686.77;;;2.64;74.74
76337;BME280;65157;50.082;18.178;2023-04-28T04:14:03;99686.42;;;2.67;75.02
76337;BME280;65157;50.082;18.178;2023-04-28T04:16:30;99689.20;;;2.70;75.10
76337;BME280;65157;50.082;18.178;2023-04-28T04:18:57;99691.27;;;2.75;74.87
76337;BME280;65157;50.082;18.178;2023-04-28T04:21:23;99690.56;;;2.79;75.14
76337;BME280;65157;50.082;18.178;2023-04-28T04:23:52;99689.67;;;2.84;74.94
76337;BME280;65157;50.082;18.178;2023-04-28T04:26:19;99690.34;;;2.88;74.95
76337;BME280;65157;50.082;18.178;2023-04-28T04:28:46;99695.91;;;2.91;75.07
76337;BME280;65157;50.082;18.178;2023-04-28T04:31:13;99698.52;;;2.94;75.18
76337;BME280;65157;50.082;18.178;2023-04-28T04:33:42;99697.98;;;2.97;75.25
76337;BME280;65157;50.082;18.178;2023-04-28T04:36:10;99697.29;;;2.96;75.37
76337;BME280;65157;50.082;18.178;2023-04-28T04:38:37;99696.74;;;3.00;75.56
76337;BME280;65157;50.082;18.178;2023-04-28T04:41:06;99706.15;;;3.04;75.61
76337;BME280;65157;50.082;18.178;2023-04-28T04:43:33;99696.73;;;3.02;75.70
76337;BME280;65157;50.082;18.178;2023-04-28T04:46:00;99700.56;;;3.05;75.52
76337;BME280;65157;50.082;18.178;2023-04-28T04:48:29;99694.61;;;3.08;75.37
76337;BME280;65157;50.082;18.178;2023-04-28T04:50:58;99700.16;;;3.16;75.30
76337;BME280;65157;50.082;18.178;2023-04-28T04:53:25;99691.08;;;3.17;75.21
76337;BME280;65157;50.082;18.178;2023-04-28T04:55:52;99698.53;;;3.26;75.03
76337;BME280;65157;50.082;18.178;2023-04-28T04:58:19;99697.61;;;3.33;75.11
76337;BME280;65157;50.082;18.178;2023-04-28T05:00:46;99691.99;;;3.39;75.25
76337;BME280;65157;50.082;18.178;2023-04-28T05:03:13;99692.14;;;3.44;75.21
76337;BME280;65157;50.082;18.178;2023-04-28T05:05:40;99694.90;;;3.51;75.10
76337;BME280;65157;50.082;18.178;2023-04-28T05:08:10;99694.48;;;3.57;74.89
76337;BME280;65157;50.082;18.178;2023-04-28T05:10:40;99694.63;;;3.63;74.97
76337;BME280;65157;50.082;18.178;2023-04-28T05:13:07;99692.30;;;3.70;74.70
76337;BME280;65157;50.082;18.178;2023-04-28T05:15:34;99684.27;;;3.72;74.45
76337;BME280;65157;50.082;18.178;2023-04-28T05:18:03;99689.22;;;3.84;74.42
76337;BME280;65157;50.082;18.178;2023-04-28T05:20:30;99689.70;;;3.90;74.48
76337;BME280;65157;50.082;18.178;2023-04-28T05:22:56;99691.92;;;3.96;74.01
76337;BME280;65157;50.082;18.178;2023-04-28T05:25:23;99683.17;;;3.99;74.17
76337;BME280;65157;50.082;18.178;2023-04-28T05:27:50;99673.52;;;4.04;74.30
76337;BME280;65157;50.082;18.178;2023-04-28T05:30:17;99678.77;;;4.20;74.12
76337;BME280;65157;50.082;18.178;2023-04-28T05:32:43;99664.27;;;4.21;74.04
76337;BME280;65157;50.082;18.178;2023-04-28T05:35:10;99674.21;;;4.38;74.09
76337;BME280;65157;50.082;18.178;2023-04-28T05:37:37;99669.92;;;4.47;73.90
76337;BME280;65157;50.082;18.178;2023-04-28T05:40:05;99647.00;;;4.50;74.21
76337;BME280;65157;50.082;18.178;2023-04-28T05:42:35;99659.89;;;4.69;74.19
76337;BME280;65157;50.082;18.178;2023-04-28T05:45:02;99660.81;;;4.79;74.09
76337;BME280;65157;50.082;18.178;2023-04-28T05:47:29;99668.19;;;4.90;74.00
76337;BME280;65157;50.082;18.178;2023-04-28T05:49:56;99666.80;;;5.03;73.99
76337;BME280;65157;50.082;18.178;2023-04-28T05:52:24;99668.19;;;5.17;73.73
76337;BME280;65157;50.082;18.178;2023-04-28T05:54:51;99652.05;;;5.20;73.45
76337;BME280;65157;50.082;18.178;2023-04-28T05:57:24;99664.86;;;5.41;73.38
76337;BME280;65157;50.082;18.178;2023-04-28T05:59:56;99668.02;;;5.53;73.24
76337;BME280;65157;50.082;18.178;2023-04-28T06:02:23;99669.57;;;5.66;72.72
76337;BME280;65157;50.082;18.178;2023-04-28T06:04:50;99653.41;;;5.68;72.12
76337;BME280;65157;50.082;18.178;2023-04-28T06:07:26;99659.80;;;5.86;71.61
76337;BME280;65157;50.082;18.178;2023-04-28T06:09:53;99663.05;;;6.02;71.21
76337;BME280;65157;50.082;18.178;2023-04-28T06:12:22;99655.52;;;6.11;71.01
76337;BME280;65157;50.082;18.178;2023-04-28T06:14:49;99655.89;;;6.29;70.78
76337;BME280;65157;50.082;18.178;2023-04-28T06:17:26;99662.65;;;6.53;70.21
76337;BME280;65157;50.082;18.178;2023-04-28T06:19:56;99665.64;;;6.69;69.65
76337;BME280;65157;50.082;18.178;2023-04-28T06:22:26;99658.30;;;6.85;69.54
76337;BME280;65157;50.082;18.178;2023-04-28T06:24:53;99663.14;;;7.05;68.48
76337;BME280;65157;50.082;18.178;2023-04-28T06:27:20;99655.00;;;7.24;68.28
76337;BME280;65157;50.082;18.178;2023-04-28T06:29:46;99655.42;;;7.44;67.99
76337;BME280;65157;50.082;18.178;2023-04-28T06:32:13;99647.70;;;7.58;67.61
76337;BME280;65157;50.082;18.178;2023-04-28T06:34:40;99649.76;;;7.83;66.96
76337;BME280;65157;50.082;18.178;2023-04-28T06:37:13;99644.56;;;8.00;66.14
76337;BME280;65157;50.082;18.178;2023-04-28T06:39:40;99646.80;;;8.16;66.39
76337;BME280;65157;50.082;18.178;2023-04-28T06:42:11;99647.27;;;8.32;65.48
76337;BME280;65157;50.082;18.178;2023-04-28T06:44:37;99638.64;;;8.46;65.15
76337;BME280;65157;50.082;18.178;2023-04-28T06:47:04;99633.53;;;8.59;64.96
76337;BME280;65157;50.082;18.178;2023-04-28T06:49:31;99636.98;;;8.80;64.35
76337;BME280;65157;50.082;18.178;2023-04-28T06:51:57;99634.24;;;9.01;63.41
76337;BME280;65157;50.082;18.178;2023-04-28T06:54:24;99625.88;;;9.15;62.48
76337;BME280;65157;50.082;18.178;2023-04-28T06:56:51;99625.56;;;9.25;62.47
76337;BME280;65157;50.082;18.178;2023-04-28T06:59:18;99614.04;;;9.39;62.38
76337;BME280;65157;50.082;18.178;2023-04-28T07:01:47;99619.28;;;9.68;62.23
76337;BME280;65157;50.082;18.178;2023-04-28T07:04:23;99613.41;;;9.85;60.92
76337;BME280;65157;50.082;18.178;2023-04-28T07:06:50;99613.52;;;9.98;60.06
76337;BME280;65157;50.082;18.178;2023-04-28T07:09:16;99610.61;;;10.11;60.10
76337;BME280;65157;50.082;18.178;2023-04-28T07:11:44;99609.89;;;10.27;59.42
76337;BME280;65157;50.082;18.178;2023-04-28T07:14:19;99614.51;;;10.42;59.57
76337;BME280;65157;50.082;18.178;2023-04-28T07:16:46;99612.61;;;10.54;58.85
76337;BME280;65157;50.082;18.178;2023-04-28T07:19:19;99609.60;;;10.64;58.85
76337;BME280;65157;50.082;18.178;2023-04-28T07:21:46;99608.07;;;10.82;58.48
76337;BME280;65157;50.082;18.178;2023-04-28T07:24:13;99604.88;;;10.95;58.37
76337;BME280;65157;50.082;18.178;2023-04-28T07:26:41;99604.39;;;11.08;57.76
76337;BME280;65157;50.082;18.178;2023-04-28T07:29:08;99601.73;;;11.18;57.63
76337;BME280;65157;50.082;18.178;2023-04-28T07:31:34;99595.73;;;11.30;57.29
76337;BME280;65157;50.082;18.178;2023-04-28T07:34:04;99594.20;;;11.47;57.21
76337;BME280;65157;50.082;18.178;2023-04-28T07:36:33;99586.56;;;11.61;56.53
76337;BME280;65157;50.082;18.178;2023-04-28T07:39:00;99579.86;;;11.69;56.83
76337;BME280;65157;50.082;18.178;2023-04-28T07:41:27;99574.30;;;11.88;56.66
76337;BME280;65157;50.082;18.178;2023-04-28T07:44:00;99566.02;;;12.08;55.88
76337;BME280;65157;50.082;18.178;2023-04-28T07:46:27;99567.70;;;12.30;54.67
76337;BME280;65157;50.082;18.178;2023-04-28T07:49:02;99563.46;;;12.46;53.90
76337;BME280;65157;50.082;18.178;2023-04-28T07:51:29;99558.30;;;12.58;52.68
76337;BME280;65157;50.082;18.178;2023-04-28T07:53:56;99560.94;;;12.66;52.68
76337;BME280;65157;50.082;18.178;2023-04-28T07:56:23;99556.62;;;12.75;52.85
76337;BME280;65157;50.082;18.178;2023-04-28T07:58:50;99555.59;;;12.90;52.93
76337;BME280;65157;50.082;18.178;2023-04-28T08:01:17;99552.05;;;12.97;52.15
76337;BME280;65157;50.082;18.178;2023-04-28T08:03:44;99557.55;;;13.00;52.60
76337;BME280;65157;50.082;18.178;2023-04-28T08:06:11;99551.61;;;13.07;52.09
76337;BME280;65157;50.082;18.178;2023-04-28T08:08:38;99549.63;;;13.19;51.86
76337;BME280;65157;50.082;18.178;2023-04-28T08:11:05;99545.77;;;13.29;51.66
76337;BME280;65157;50.082;18.178;2023-04-28T08:13:32;99546.21;;;13.41;50.80
76337;BME280;65157;50.082;18.178;2023-04-28T08:16:05;99542.00;;;13.55;50.03
76337;BME280;65157;50.082;18.178;2023-04-28T08:18:34;99535.86;;;13.71;49.75
76337;BME280;65157;50.082;18.178;2023-04-28T08:21:01;99536.61;;;13.81;46.38
76337;BME280;65157;50.082;18.178;2023-04-28T08:23:27;99534.73;;;13.86;47.74
76337;BME280;65157;50.082;18.178;2023-04-28T08:25:55;99529.73;;;14.01;47.26
76337;BME280;65157;50.082;18.178;2023-04-28T08:28:22;99531.92;;;14.13;47.28
76337;BME280;65157;50.082;18.178;2023-04-28T08:30:49;99534.34;;;14.25;44.97
76337;BME280;65157;50.082;18.178;2023-04-28T08:33:16;99531.09;;;14.29;44.75
76337;BME280;65157;50.082;18.178;2023-04-28T08:35:43;99517.05;;;14.30;45.46
76337;BME280;65157;50.082;18.178;2023-04-28T08:38:10;99527.62;;;14.54;45.02
76337;BME280;65157;50.082;18.178;2023-04-28T08:40:39;99524.92;;;14.61;43.86
76337;BME280;65157;50.082;18.178;2023-04-28T08:43:06;99524.33;;;14.69;45.05
76337;BME280;65157;50.082;18.178;2023-04-28T08:45:40;99522.52;;;14.82;44.47
76337;BME280;65157;50.082;18.178;2023-04-28T08:48:19;99520.66;;;14.97;43.56
76337;BME280;65157;50.082;18.178;2023-04-28T08:50:51;99514.83;;;15.05;43.00
76337;BME280;65157;50.082;18.178;2023-04-28T08:53:24;99518.94;;;15.14;42.51
76337;BME280;65157;50.082;18.178;2023-04-28T08:55:57;99512.69;;;15.21;42.18
76337;BME280;65157;50.082;18.178;2023-04-28T08:58:25;99510.25;;;15.20;41.13
76337;BME280;65157;50.082;18.178;2023-04-28T09:00:55;99506.23;;;15.25;41.65
76337;BME280;65157;50.082;18.178;2023-04-28T09:03:21;99506.47;;;15.27;41.43
76337;BME280;65157;50.082;18.178;2023-04-28T09:05:48;99507.11;;;15.35;41.41
76337;BME280;65157;50.082;18.178;2023-04-28T09:08:15;99503.95;;;15.40;40.28
76337;BME280;65157;50.082;18.178;2023-04-28T09:10:42;99500.35;;;15.53;41.82
76337;BME280;65157;50.082;18.178;2023-04-28T09:13:23;99497.34;;;15.74;42.29
76337;BME280;65157;50.082;18.178;2023-04-28T09:15:58;99493.67;;;16.00;41.54
76337;BME280;65157;50.082;18.178;2023-04-28T09:18:25;99481.71;;;16.15;41.68
76337;BME280;65157;50.082;18.178;2023-04-28T09:21:01;99488.36;;;16.31;40.64
76337;BME280;65157;50.082;18.178;2023-04-28T09:23:28;99483.77;;;16.36;39.39
76337;BME280;65157;50.082;18.178;2023-04-28T09:26:07;99484.30;;;16.45;39.88
76337;BME280;65157;50.082;18.178;2023-04-28T09:28:34;99482.91;;;16.47;38.54
76337;BME280;65157;50.082;18.178;2023-04-28T09:31:04;99477.17;;;16.48;38.36
76337;BME280;65157;50.082;18.178;2023-04-28T09:33:55;99476.46;;;16.56;38.32
76337;BME280;65157;50.082;18.178;2023-04-28T09:36:26;99466.34;;;16.53;37.74
76337;BME280;65157;50.082;18.178;2023-04-28T09:39:04;99461.36;;;16.56;37.83
76337;BME280;65157;50.082;18.178;2023-04-28T09:41:40;99458.72;;;16.77;38.91
76337;BME280;65157;50.082;18.178;2023-04-28T09:44:18;99459.76;;;16.97;37.72
76337;BME280;65157;50.082;18.178;2023-04-28T09:46:45;99453.75;;;17.04;37.34
76337;BME280;65157;50.082;18.178;2023-04-28T09:49:15;99453.65;;;17.09;36.92
76337;BME280;65157;50.082;18.178;2023-04-28T09:52:11;99452.45;;;17.16;37.47
76337;BME280;65157;50.082;18.178;2023-04-28T09:54:38;99435.81;;;17.25;38.14
76337;BME280;65157;50.082;18.178;2023-04-28T09:57:04;99440.61;;;17.43;37.23
76337;BME280;65157;50.082;18.178;2023-04-28T09:59:32;99437.19;;;17.44;36.03
76337;BME280;65157;50.082;18.178;2023-04-28T10:01:59;99430.35;;;17.47;35.95
76337;BME280;65157;50.082;18.178;2023-04-28T10:04:26;99425.86;;;17.53;35.59
76337;BME280;65157;50.082;18.178;2023-04-28T10:06:53;99421.49;;;17.54;35.79
76337;BME280;65157;50.082;18.178;2023-04-28T10:09:20;99413.41;;;17.68;36.50
76337;BME280;65157;50.082;18.178;2023-04-28T10:11:55;99414.81;;;17.84;35.42
76337;BME280;65157;50.082;18.178;2023-04-28T10:14:21;99411.35;;;17.95;36.33
76337;BME280;65157;50.082;18.178;2023-04-28T10:16:49;99408.77;;;18.06;36.33
76337;BME280;65157;50.082;18.178;2023-04-28T10:19:17;99405.27;;;18.23;35.91
76337;BME280;65157;50.082;18.178;2023-04-28T10:21:58;99398.34;;;18.30;35.62
76337;BME280;65157;50.082;18.178;2023-04-28T10:24:29;99396.05;;;18.32;35.78
76337;BME280;65157;50.082;18.178;2023-04-28T10:27:03;99387.44;;;18.30;35.07
76337;BME280;65157;50.082;18.178;2023-04-28T10:29:34;99390.37;;;18.44;35.22
76337;BME280;65157;50.082;18.178;2023-04-28T10:32:22;99383.91;;;18.64;36.00
76337;BME280;65157;50.082;18.178;2023-04-28T10:34:49;99375.90;;;18.85;35.50
76337;BME280;65157;50.082;18.178;2023-04-28T10:37:18;99368.13;;;18.86;34.25
76337;BME280;65157;50.082;18.178;2023-04-28T10:42:54;99362.27;;;18.98;33.60
76337;BME280;65157;50.082;18.178;2023-04-28T10:48:20;99351.80;;;18.89;33.13
76337;BME280;65157;50.082;18.178;2023-04-28T10:58:39;99345.77;;;18.75;33.89
76337;BME280;65157;50.082;18.178;2023-04-28T11:06:25;99332.18;;;18.82;32.82
76337;BME280;65157;50.082;18.178;2023-04-28T11:08:56;99333.34;;;18.93;33.24
76337;BME280;65157;50.082;18.178;2023-04-28T11:11:32;99333.61;;;18.91;33.25
76337;BME280;65157;50.082;18.178;2023-04-28T11:19:32;99323.33;;;19.21;33.68
76337;BME280;65157;50.082;18.178;2023-04-28T11:22:19;99328.83;;;19.33;33.56
76337;BME280;65157;50.082;18.178;2023-04-28T11:25:24;99333.36;;;19.42;32.86
76337;BME280;65157;50.082;18.178;2023-04-28T11:27:51;99318.48;;;19.30;33.11
76337;BME280;65157;50.082;18.178;2023-04-28T11:30:20;99323.60;;;19.24;33.76
76337;BME280;65157;50.082;18.178;2023-04-28T11:32:48;99320.32;;;19.20;33.13
76337;BME280;65157;50.082;18.178;2023-04-28T11:35:15;99324.48;;;19.24;32.68
76337;BME280;65157;50.082;18.178;2023-04-28T11:37:42;99324.33;;;19.21;32.37
76337;BME280;65157;50.082;18.178;2023-04-28T11:40:10;99318.77;;;19.05;32.34
76337;BME280;65157;50.082;18.178;2023-04-28T11:42:46;99325.73;;;19.00;32.72
76337;BME280;65157;50.082;18.178;2023-04-28T11:45:17;99309.15;;;18.86;33.81
76337;BME280;65157;50.082;18.178;2023-04-28T11:47:46;99312.44;;;18.90;33.88
76337;BME280;65157;50.082;18.178;2023-04-28T11:50:12;99311.77;;;18.77;32.80
76337;BME280;65157;50.082;18.178;2023-04-28T11:52:51;99292.34;;;18.57;33.36
76337;BME280;65157;50.082;18.178;2023-04-28T11:55:18;99300.70;;;18.55;33.41
76337;BME280;65157;50.082;18.178;2023-04-28T11:57:46;99290.58;;;18.50;33.33
76337;BME280;65157;50.082;18.178;2023-04-28T12:00:14;99289.05;;;18.51;33.53
76337;BME280;65157;50.082;18.178;2023-04-28T12:02:41;99290.42;;;18.54;33.19
76337;BME280;65157;50.082;18.178;2023-04-28T12:05:12;99279.12;;;18.43;32.58
76337;BME280;65157;50.082;18.178;2023-04-28T12:07:45;99285.11;;;18.34;32.69
76337;BME280;65157;50.082;18.178;2023-04-28T12:10:13;99281.58;;;18.36;33.51
76337;BME280;65157;50.082;18.178;2023-04-28T12:12:48;99276.80;;;18.52;34.14
76337;BME280;65157;50.082;18.178;2023-04-28T12:15:14;99277.09;;;18.58;33.81
76337;BME280;65157;50.082;18.178;2023-04-28T12:17:42;99276.16;;;18.68;33.22
76337;BME280;65157;50.082;18.178;2023-04-28T12:20:40;99273.23;;;18.71;32.50
76337;BME280;65157;50.082;18.178;2023-04-28T12:23:11;99269.66;;;18.76;32.48
76337;BME280;65157;50.082;18.178;2023-04-28T12:25:45;99265.33;;;18.81;32.31
76337;BME280;65157;50.082;18.178;2023-04-28T12:28:11;99261.58;;;18.88;32.44
76337;BME280;65157;50.082;18.178;2023-04-28T12:30:38;99261.13;;;18.92;32.45
76337;BME280;65157;50.082;18.178;2023-04-28T12:33:05;99259.39;;;18.93;32.60
76337;BME280;65157;50.082;18.178;2023-04-28T12:35:34;99243.56;;;18.83;33.37
76337;BME280;65157;50.082;18.178;2023-04-28T12:38:01;99246.48;;;18.98;33.12
76337;BME280;65157;50.082;18.178;2023-04-28T12:40:27;99240.10;;;19.04;33.36
76337;BME280;65157;50.082;18.178;2023-04-28T12:42:54;99250.64;;;19.14;32.28
76337;BME280;65157;50.082;18.178;2023-04-28T12:45:21;99239.29;;;19.08;33.66
76337;BME280;65157;50.082;18.178;2023-04-28T12:47:53;99230.73;;;19.17;33.77
76337;BME280;65157;50.082;18.178;2023-04-28T12:50:19;99231.79;;;19.33;33.39
76337;BME280;65157;50.082;18.178;2023-04-28T12:52:46;99227.48;;;19.45;32.63
76337;BME280;65157;50.082;18.178;2023-04-28T12:55:13;99220.87;;;19.51;32.10
76337;BME280;65157;50.082;18.178;2023-04-28T12:57:42;99223.70;;;19.59;32.44
76337;BME280;65157;50.082;18.178;2023-04-28T13:00:10;99223.62;;;19.59;32.12
76337;BME280;65157;50.082;18.178;2023-04-28T13:02:39;99223.95;;;19.53;32.28
76337;BME280;65157;50.082;18.178;2023-04-28T13:05:06;99214.39;;;19.36;31.54
76337;BME280;65157;50.082;18.178;2023-04-28T13:07:40;99215.77;;;19.30;32.41
76337;BME280;65157;50.082;18.178;2023-04-28T13:10:09;99218.50;;;19.29;32.22
76337;BME280;65157;50.082;18.178;2023-04-28T13:12:39;99206.73;;;19.31;32.22
76337;BME280;65157;50.082;18.178;2023-04-28T13:15:06;99212.70;;;19.53;32.87
76337;BME280;65157;50.082;18.178;2023-04-28T13:17:37;99209.24;;;19.62;32.53
76337;BME280;65157;50.082;18.178;2023-04-28T13:20:04;99209.98;;;19.53;32.28
76337;BME280;65157;50.082;18.178;2023-04-28T13:22:31;99206.83;;;19.48;31.92
76337;BME280;65157;50.082;18.178;2023-04-28T13:24:57;99205.46;;;19.40;31.67
76337;BME280;65157;50.082;18.178;2023-04-28T13:27:24;99197.52;;;19.32;31.98